createdAt,value
2023-01-17T00:00:37.393Z,958.05
2023-01-17T00:01:37.290Z,958.02
2023-01-17T00:02:37.308Z,958.00
2023-01-17T00:03:37.268Z,958.00
2023-01-17T00:04:37.281Z,958.05
2023-01-17T00:05:37.264Z,958.03
2023-01-17T00:06:37.238Z,958.05
2023-01-17T00:07:37.220Z,958.12
2023-01-17T00:08:37.218Z,958.18
2023-01-17T00:09:37.230Z,958.17
2023-01-17T00:10:37.198Z,958.20
2023-01-17T00:11:37.187Z,958.20
2023-01-17T00:12:37.179Z,958.18
2023-01-17T00:13:37.173Z,958.19
2023-01-17T00:14:37.182Z,958.21
2023-01-17T00:15:37.145Z,958.25
2023-01-17T00:16:37.139Z,958.22
2023-01-17T00:17:37.131Z,958.22
2023-01-17T00:18:37.124Z,958.18
2023-01-17T00:19:37.120Z,958.33
2023-01-17T00:20:37.102Z,958.28
2023-01-17T00:21:37.092Z,958.32
2023-01-17T00:22:37.087Z,958.40
2023-01-17T00:23:37.068Z,958.43
2023-01-17T00:24:37.075Z,958.42
2023-01-17T00:25:37.046Z,958.52
2023-01-17T00:26:37.042Z,958.56
2023-01-17T00:27:37.033Z,958.54
2023-01-17T00:28:37.022Z,958.56
2023-01-17T00:29:37.050Z,958.60
2023-01-17T00:30:36.991Z,958.57
2023-01-17T00:31:37.012Z,958.57
2023-01-17T00:32:36.989Z,958.65
2023-01-17T00:33:36.978Z,958.61
2023-01-17T00:34:36.967Z,958.64
2023-01-17T00:35:36.952Z,958.70
2023-01-17T00:36:36.949Z,958.70
2023-01-17T00:37:36.933Z,958.76
2023-01-17T00:38:36.932Z,958.79
2023-01-17T00:39:36.941Z,958.77
2023-01-17T00:40:36.918Z,958.79
2023-01-17T00:41:36.905Z,958.81
2023-01-17T00:42:36.878Z,958.76
2023-01-17T00:43:36.882Z,958.79
2023-01-17T00:44:36.893Z,958.79
2023-01-17T00:45:36.855Z,958.89
2023-01-17T00:46:36.884Z,958.87
2023-01-17T00:47:36.834Z,958.87
2023-01-17T00:48:36.834Z,958.88
2023-01-17T00:49:36.851Z,958.97
2023-01-17T00:50:36.811Z,958.92
2023-01-17T00:51:36.798Z,958.86
2023-01-17T00:52:36.796Z,958.84
2023-01-17T00:53:36.800Z,958.93
2023-01-17T00:54:36.787Z,959.04
2023-01-17T00:55:36.772Z,958.90
2023-01-17T00:56:36.758Z,958.93
2023-01-17T00:57:36.756Z,959.08
2023-01-17T00:58:36.742Z,958.99
2023-01-17T00:59:36.754Z,959.05
2023-01-17T01:00:36.803Z,959.07
2023-01-17T01:01:36.927Z,959.11
2023-01-17T01:02:36.732Z,959.08
2023-01-17T01:03:36.743Z,959.12
2023-01-17T01:04:36.699Z,959.16
2023-01-17T01:05:36.687Z,959.17
2023-01-17T01:06:36.649Z,959.19
2023-01-17T01:07:36.690Z,959.17
2023-01-17T01:08:36.645Z,959.18
2023-01-17T01:09:37.652Z,959.21
2023-01-17T01:10:36.632Z,959.20
2023-01-17T01:11:36.620Z,959.26
2023-01-17T01:12:36.604Z,959.27
2023-01-17T01:13:36.592Z,959.20
2023-01-17T01:14:36.601Z,959.23
2023-01-17T01:15:36.577Z,959.21
2023-01-17T01:16:36.623Z,959.26
2023-01-17T01:17:36.567Z,959.28
2023-01-17T01:18:36.542Z,959.28
2023-01-17T01:19:36.560Z,959.30
2023-01-17T01:20:36.548Z,959.27
2023-01-17T01:21:36.519Z,959.32
2023-01-17T01:22:36.503Z,959.40
2023-01-17T01:23:36.500Z,959.41
2023-01-17T01:24:36.498Z,959.37
2023-01-17T01:25:36.537Z,959.36
2023-01-17T01:26:36.475Z,959.42
2023-01-17T01:27:36.456Z,959.39
2023-01-17T01:28:36.451Z,959.38
2023-01-17T01:29:36.466Z,959.44
2023-01-17T01:30:36.413Z,959.47
2023-01-17T01:31:36.456Z,959.55
2023-01-17T01:32:36.404Z,959.52
2023-01-17T01:33:36.406Z,959.51
2023-01-17T01:34:36.425Z,959.52
2023-01-17T01:35:36.371Z,959.55
2023-01-17T01:36:36.369Z,959.58
2023-01-17T01:37:36.352Z,959.66
2023-01-17T01:38:36.344Z,959.66
2023-01-17T01:39:36.350Z,959.72
2023-01-17T01:40:36.327Z,959.65
2023-01-17T01:41:36.321Z,959.66
2023-01-17T01:42:36.307Z,959.67
2023-01-17T01:43:36.307Z,959.80
2023-01-17T01:44:36.324Z,959.78
2023-01-17T01:45:36.314Z,959.82
2023-01-17T01:46:36.259Z,959.82
2023-01-17T01:47:36.253Z,959.77
2023-01-17T01:48:36.247Z,959.85
2023-01-17T01:49:36.268Z,959.82
2023-01-17T01:50:36.226Z,959.83
2023-01-17T01:51:36.232Z,959.81
2023-01-17T01:52:36.203Z,959.87
2023-01-17T01:53:36.204Z,959.84
2023-01-17T01:54:36.197Z,959.83
2023-01-17T01:55:36.228Z,959.88
2023-01-17T01:56:36.170Z,959.90
2023-01-17T01:57:36.184Z,959.85
2023-01-17T01:58:36.160Z,959.97
2023-01-17T01:59:36.160Z,959.88
2023-01-17T02:00:36.197Z,959.88
2023-01-17T02:01:36.163Z,959.91
2023-01-17T02:02:36.114Z,959.92
2023-01-17T02:03:36.115Z,959.92
2023-01-17T02:04:37.114Z,959.92
2023-01-17T02:05:36.073Z,959.89
2023-01-17T02:06:36.051Z,959.92
2023-01-17T02:07:36.058Z,959.99
2023-01-17T02:08:36.043Z,960.05
2023-01-17T02:09:36.057Z,960.06
2023-01-17T02:10:36.010Z,960.01
2023-01-17T02:11:36.022Z,960.09
2023-01-17T02:12:36.003Z,960.12
2023-01-17T02:13:35.996Z,959.99
2023-01-17T02:14:36.010Z,960.03
2023-01-17T02:15:35.974Z,960.00
2023-01-17T02:16:35.977Z,960.03
2023-01-17T02:17:35.959Z,960.09
2023-01-17T02:18:35.939Z,959.93
2023-01-17T02:19:35.962Z,960.01
2023-01-17T02:20:35.930Z,960.06
2023-01-17T02:21:35.921Z,960.11
2023-01-17T02:22:35.899Z,960.06
2023-01-17T02:23:35.891Z,960.08
2023-01-17T02:24:35.905Z,960.09
2023-01-17T02:25:35.875Z,960.04
2023-01-17T02:26:35.865Z,960.07
2023-01-17T02:27:35.851Z,960.07
2023-01-17T02:28:35.851Z,960.10
2023-01-17T02:29:35.847Z,960.12
2023-01-17T02:30:35.842Z,960.20
2023-01-17T02:31:35.846Z,960.19
2023-01-17T02:32:35.819Z,960.15
2023-01-17T02:33:35.796Z,960.22
2023-01-17T02:34:35.807Z,960.18
2023-01-17T02:35:35.797Z,960.24
2023-01-17T02:36:35.793Z,960.25
2023-01-17T02:37:35.751Z,960.22
2023-01-17T02:38:35.755Z,960.30
2023-01-17T02:39:35.762Z,960.25
2023-01-17T02:40:35.743Z,960.22
2023-01-17T02:41:35.712Z,960.30
2023-01-17T02:42:35.717Z,960.30
2023-01-17T02:43:35.703Z,960.30
2023-01-17T02:44:35.719Z,960.28
2023-01-17T02:45:35.704Z,960.32
2023-01-17T02:46:35.682Z,960.34
2023-01-17T02:47:35.677Z,960.31
2023-01-17T02:48:35.665Z,960.34
2023-01-17T02:49:35.658Z,960.33
2023-01-17T02:50:35.645Z,960.37
2023-01-17T02:51:35.636Z,960.37
2023-01-17T02:52:35.630Z,960.32
2023-01-17T02:53:35.600Z,960.38
2023-01-17T02:54:35.634Z,960.40
2023-01-17T02:55:35.624Z,960.40
2023-01-17T02:56:35.595Z,960.45
2023-01-17T02:57:35.597Z,960.44
2023-01-17T02:58:35.585Z,960.41
2023-01-17T02:59:35.594Z,960.44
2023-01-17T03:00:35.566Z,960.45
2023-01-17T03:01:35.671Z,960.43
2023-01-17T03:02:35.635Z,960.48
2023-01-17T03:03:35.528Z,960.43
2023-01-17T03:04:35.548Z,960.47
2023-01-17T03:05:35.509Z,960.53
2023-01-17T03:06:35.511Z,960.45
2023-01-17T03:07:35.491Z,960.43
2023-01-17T03:08:35.482Z,960.51
2023-01-17T03:09:35.472Z,960.51
2023-01-17T03:10:35.501Z,960.47
2023-01-17T03:11:35.475Z,960.56
2023-01-17T03:12:35.449Z,960.54
2023-01-17T03:13:35.445Z,960.58
2023-01-17T03:14:35.431Z,960.56
2023-01-17T03:15:35.445Z,960.69
2023-01-17T03:16:35.494Z,960.72
2023-01-17T03:17:35.395Z,960.59
2023-01-17T03:20:25.803Z,960.62
2023-01-17T03:21:20.510Z,960.62
2023-01-17T03:22:20.499Z,960.68
2023-01-17T03:23:20.495Z,960.72
2023-01-17T03:24:20.480Z,960.58
2023-01-17T03:25:20.485Z,960.63
2023-01-17T03:26:20.464Z,960.60
2023-01-17T03:27:20.455Z,960.66
2023-01-17T03:28:20.449Z,960.66
2023-01-17T03:29:21.557Z,960.79
2023-01-17T03:30:21.706Z,960.77
2023-01-17T03:31:21.541Z,960.77
2023-01-17T03:32:21.537Z,960.73
2023-01-17T03:33:21.627Z,960.80
2023-01-17T03:34:21.514Z,960.81
2023-01-17T03:35:21.521Z,960.83
2023-01-17T03:36:21.504Z,960.87
2023-01-17T03:39:06.627Z,960.90
2023-01-17T03:41:32.867Z,960.99
2023-01-17T03:42:32.872Z,961.01
2023-01-17T03:43:32.859Z,960.96
2023-01-17T03:44:32.858Z,961.04
2023-01-17T03:45:32.868Z,961.04
2023-01-17T03:46:32.844Z,961.05
2023-01-17T03:47:32.824Z,961.15
2023-01-17T03:48:32.817Z,961.13
2023-01-17T03:49:32.803Z,961.17
2023-01-17T03:50:32.817Z,961.15
2023-01-17T03:51:33.917Z,961.19
2023-01-17T03:52:33.903Z,961.08
2023-01-17T03:53:33.903Z,961.18
2023-01-17T03:54:33.918Z,961.15
2023-01-17T03:55:33.908Z,961.17
2023-01-17T03:56:33.879Z,961.19
2023-01-17T03:57:33.885Z,961.29
2023-01-17T03:58:33.854Z,961.30
2023-01-17T03:59:33.875Z,961.35
2023-01-17T04:00:33.861Z,961.33
2023-01-17T04:01:33.970Z,961.37
2023-01-17T04:02:33.890Z,961.45
2023-01-17T04:03:34.763Z,961.34
2023-01-17T04:04:33.805Z,961.48
2023-01-17T04:07:18.921Z,961.53
2023-01-17T04:08:18.917Z,961.55
2023-01-17T04:09:18.903Z,961.52
2023-01-17T04:10:18.947Z,961.51
2023-01-17T04:11:18.890Z,961.51
2023-01-17T04:12:18.902Z,961.59
2023-01-17T04:16:11.388Z,961.60
2023-01-17T04:17:11.381Z,961.61
2023-01-17T04:18:11.368Z,961.62
2023-01-17T04:19:11.363Z,961.66
2023-01-17T04:20:11.369Z,961.69
2023-01-17T04:21:11.344Z,961.68
2023-01-17T04:22:11.327Z,961.72
2023-01-17T04:23:11.326Z,961.78
2023-01-17T04:24:11.307Z,961.75
2023-01-17T04:25:11.314Z,961.77
2023-01-17T04:26:11.294Z,961.78
2023-01-17T04:27:11.283Z,961.81
2023-01-17T04:28:11.271Z,961.70
2023-01-17T04:29:11.271Z,961.76
2023-01-17T04:30:11.272Z,961.83
2023-01-17T04:31:11.375Z,961.79
2023-01-17T04:32:11.241Z,961.75
2023-01-17T04:33:11.225Z,961.78
2023-01-17T04:34:11.221Z,961.74
2023-01-17T04:35:11.225Z,961.78
2023-01-17T04:36:11.220Z,961.74
2023-01-17T04:37:12.310Z,961.72
2023-01-17T04:38:12.287Z,961.75
2023-01-17T04:39:12.309Z,961.77
2023-01-17T04:40:12.306Z,961.81
2023-01-17T04:41:12.274Z,961.80
2023-01-17T04:42:12.253Z,961.85
2023-01-17T04:43:12.256Z,961.90
2023-01-17T04:44:12.250Z,961.88
2023-01-17T04:45:12.254Z,961.87
2023-01-17T04:46:12.259Z,961.96
2023-01-17T04:47:12.220Z,961.96
2023-01-17T04:48:12.237Z,961.96
2023-01-17T04:49:12.201Z,961.94
2023-01-17T04:50:12.212Z,961.97
2023-01-17T04:51:12.207Z,961.95
2023-01-17T04:52:12.179Z,961.93
2023-01-17T04:53:12.168Z,961.95
2023-01-17T04:54:12.151Z,961.99
2023-01-17T04:55:12.163Z,961.92
2023-01-17T04:56:12.149Z,962.03
2023-01-17T04:57:12.133Z,962.08
2023-01-17T04:58:12.128Z,962.10
2023-01-17T04:59:12.116Z,962.12
2023-01-17T05:00:12.139Z,962.09
2023-01-17T05:01:12.181Z,962.11
2023-01-17T05:02:12.086Z,962.15
2023-01-17T05:03:12.070Z,962.12
2023-01-17T05:04:12.057Z,962.16
2023-01-17T05:05:12.061Z,962.17
2023-01-17T05:06:12.050Z,962.19
2023-01-17T05:07:12.037Z,962.25
2023-01-17T05:08:12.027Z,962.21
2023-01-17T05:09:12.012Z,962.19
2023-01-17T05:10:12.019Z,962.25
2023-01-17T05:11:11.998Z,962.31
2023-01-17T05:12:11.976Z,962.30
2023-01-17T05:13:11.986Z,962.33
2023-01-17T05:14:11.955Z,962.30
2023-01-17T05:15:11.970Z,962.43
2023-01-17T05:16:11.998Z,962.38
2023-01-17T05:17:11.947Z,962.38
2023-01-17T05:18:11.919Z,962.47
2023-01-17T05:19:11.923Z,962.52
2023-01-17T05:20:11.920Z,962.47
2023-01-17T05:21:12.899Z,962.55
2023-01-17T05:22:11.901Z,962.50
2023-01-17T05:23:11.882Z,962.52
2023-01-17T05:24:11.867Z,962.53
2023-01-17T05:25:11.878Z,962.55
2023-01-17T05:26:11.858Z,962.57
2023-01-17T05:27:11.838Z,962.64
2023-01-17T05:28:11.848Z,962.67
2023-01-17T05:29:11.830Z,962.68
2023-01-17T05:30:11.812Z,962.75
2023-01-17T05:31:11.863Z,962.72
2023-01-17T05:32:11.811Z,962.80
2023-01-17T05:33:11.802Z,962.76
2023-01-17T05:34:11.787Z,962.83
2023-01-17T05:35:11.806Z,962.74
2023-01-17T05:36:11.799Z,962.82
2023-01-17T05:37:11.763Z,962.82
2023-01-17T05:38:11.745Z,962.84
2023-01-17T05:39:11.747Z,962.83
2023-01-17T05:40:11.747Z,962.78
2023-01-17T05:41:11.746Z,962.84
2023-01-17T05:42:11.734Z,962.87
2023-01-17T05:43:11.706Z,962.89
2023-01-17T05:44:11.706Z,962.89
2023-01-17T05:45:11.706Z,962.94
2023-01-17T05:46:11.743Z,962.97
2023-01-17T05:47:11.686Z,962.99
2023-01-17T05:48:11.671Z,962.93
2023-01-17T05:49:11.667Z,962.97
2023-01-17T05:50:11.668Z,962.98
2023-01-17T05:51:11.666Z,963.07
2023-01-17T05:52:11.659Z,963.08
2023-01-17T05:53:11.641Z,963.12
2023-01-17T05:54:11.621Z,963.22
2023-01-17T05:55:11.626Z,963.20
2023-01-17T05:56:11.622Z,963.34
2023-01-17T05:57:11.594Z,963.33
2023-01-17T05:58:11.615Z,963.43
2023-01-17T05:59:14.014Z,963.41
2023-01-17T06:01:57.708Z,963.59
2023-01-17T06:02:57.859Z,963.65
2023-01-17T06:03:57.708Z,963.74
2023-01-17T06:04:57.703Z,963.75
2023-01-17T06:05:57.702Z,963.77
2023-01-17T06:11:21.485Z,963.88
2023-01-17T06:12:22.158Z,963.84
2023-01-17T06:13:21.444Z,963.81
2023-01-17T06:14:21.444Z,963.82
2023-01-17T06:15:21.458Z,963.90
2023-01-17T06:16:21.448Z,963.93
2023-01-17T06:17:23.288Z,963.94
2023-01-17T06:19:47.647Z,963.88
2023-01-17T06:20:47.665Z,963.87
2023-01-17T06:21:47.648Z,963.96
2023-01-17T06:22:47.648Z,963.94
2023-01-17T06:23:47.635Z,963.96
2023-01-17T06:24:47.623Z,963.99
2023-01-17T06:25:48.744Z,964.00
2023-01-17T06:26:48.728Z,963.98
2023-01-17T06:27:48.712Z,963.98
2023-01-17T06:28:48.708Z,964.01
2023-01-17T06:29:48.719Z,964.00
2023-01-17T06:30:48.729Z,963.99
2023-01-17T06:31:48.699Z,963.91
2023-01-17T06:32:48.688Z,963.93
2023-01-17T06:33:48.681Z,963.92
2023-01-17T06:34:48.678Z,963.89
2023-01-17T06:35:48.688Z,963.95
2023-01-17T06:36:48.656Z,963.94
2023-01-17T06:37:48.661Z,963.98
2023-01-17T06:38:48.643Z,963.96
2023-01-17T06:39:48.651Z,963.95
2023-01-17T06:40:48.639Z,963.96
2023-01-17T06:41:48.624Z,964.00
2023-01-17T06:42:48.634Z,964.07
2023-01-17T06:43:48.606Z,964.08
2023-01-17T06:44:48.591Z,964.03
2023-01-17T06:45:51.141Z,964.05
2023-01-17T06:46:49.594Z,964.09
2023-01-17T06:47:48.552Z,964.08
2023-01-17T06:48:48.556Z,964.11
2023-01-17T06:49:48.572Z,964.16
2023-01-17T06:50:48.556Z,964.10
2023-01-17T06:51:48.521Z,964.15
2023-01-17T06:52:48.506Z,964.12
2023-01-17T06:53:48.505Z,964.10
2023-01-17T06:54:48.491Z,964.16
2023-01-17T06:55:48.516Z,964.15
2023-01-17T06:56:49.486Z,964.16
2023-01-17T06:59:33.648Z,964.24
2023-01-17T07:00:34.423Z,964.29
2023-01-17T07:01:33.747Z,964.24
2023-01-17T07:02:33.606Z,964.25
2023-01-17T07:03:33.615Z,964.22
2023-01-17T07:06:05.120Z,964.31
2023-01-17T07:06:59.838Z,964.23
2023-01-17T07:07:59.822Z,964.25
2023-01-17T07:08:59.823Z,964.28
2023-01-17T07:11:47.059Z,964.30
2023-01-17T07:12:26.046Z,964.29
2023-01-17T07:13:26.040Z,964.32
2023-01-17T07:16:21.156Z,964.38
2023-01-17T07:16:52.295Z,964.39
2023-01-17T07:22:25.323Z,964.47
2023-01-17T07:23:11.030Z,964.44
2023-01-17T07:24:11.020Z,964.41
2023-01-17T07:25:11.017Z,964.41
2023-01-17T07:26:11.027Z,964.45
2023-01-17T07:27:11.010Z,964.48
2023-01-17T07:28:11.004Z,964.45
2023-01-17T07:29:11.007Z,964.45
2023-01-17T07:30:10.981Z,964.44
2023-01-17T07:31:12.184Z,964.51
2023-01-17T07:32:12.096Z,964.47
2023-01-17T07:33:12.106Z,964.47
2023-01-17T07:34:12.082Z,964.46
2023-01-17T07:35:12.071Z,964.53
2023-01-17T07:36:12.087Z,964.51
2023-01-17T07:37:14.328Z,964.49
2023-01-17T07:38:12.128Z,964.52
2023-01-17T07:39:12.047Z,964.54
2023-01-17T07:40:12.033Z,964.53
2023-01-17T07:41:12.051Z,964.59
2023-01-17T07:42:12.026Z,964.51
2023-01-17T07:43:12.015Z,964.54
2023-01-17T07:44:12.011Z,964.55
2023-01-17T07:45:11.989Z,964.58
2023-01-17T07:46:12.039Z,964.55
2023-01-17T07:47:12.001Z,964.58
2023-01-17T07:48:11.969Z,964.61
2023-01-17T07:49:11.969Z,964.61
2023-01-17T07:50:11.939Z,964.59
2023-01-17T07:51:11.962Z,964.66
2023-01-17T07:52:11.939Z,964.67
2023-01-17T07:53:11.936Z,964.69
2023-01-17T07:54:11.920Z,964.63
2023-01-17T07:55:11.910Z,964.68
2023-01-17T07:56:11.922Z,964.67
2023-01-17T07:57:11.895Z,964.63
2023-01-17T07:58:11.886Z,964.64
2023-01-17T07:59:11.882Z,964.65
2023-01-17T08:00:11.881Z,964.68
2023-01-17T08:01:11.963Z,964.66
2023-01-17T08:02:11.863Z,964.72
2023-01-17T08:03:11.845Z,964.70
2023-01-17T08:04:11.949Z,964.77
2023-01-17T08:05:11.835Z,964.78
2023-01-17T08:06:11.846Z,964.70
2023-01-17T08:07:11.812Z,964.64
2023-01-17T08:08:11.806Z,964.77
2023-01-17T08:09:11.816Z,964.82
2023-01-17T08:10:11.796Z,964.71
2023-01-17T08:11:11.797Z,964.73
2023-01-17T08:12:11.767Z,964.78
2023-01-17T08:13:11.769Z,964.77
2023-01-17T08:14:11.774Z,964.78
2023-01-17T08:15:11.740Z,964.74
2023-01-17T08:16:11.797Z,964.78
2023-01-17T08:17:11.779Z,964.79
2023-01-17T08:18:11.732Z,964.78
2023-01-17T08:19:11.729Z,964.70
2023-01-17T08:20:11.708Z,964.84
2023-01-17T08:21:11.704Z,964.77
2023-01-17T08:22:11.955Z,964.85
2023-01-17T08:23:11.681Z,964.82
2023-01-17T08:24:11.679Z,964.79
2023-01-17T08:25:11.673Z,964.84
2023-01-17T08:26:11.666Z,964.78
2023-01-17T08:27:11.679Z,964.82
2023-01-17T08:28:11.640Z,964.83
2023-01-17T08:29:11.640Z,964.84
2023-01-17T08:30:11.631Z,964.85
2023-01-17T08:31:11.683Z,964.86
2023-01-17T08:32:11.649Z,964.90
2023-01-17T08:33:11.607Z,964.89
2023-01-17T08:34:11.600Z,964.91
2023-01-17T08:35:11.593Z,964.85
2023-01-17T08:36:11.585Z,964.86
2023-01-17T08:37:11.599Z,964.86
2023-01-17T08:38:11.560Z,964.88
2023-01-17T08:39:11.553Z,964.91
2023-01-17T08:40:11.561Z,964.77
2023-01-17T08:41:11.552Z,964.81
2023-01-17T08:42:11.555Z,964.85
2023-01-17T08:43:11.518Z,964.81
2023-01-17T08:44:11.519Z,964.89
2023-01-17T08:45:11.545Z,964.92
2023-01-17T08:46:11.539Z,964.88
2023-01-17T08:47:11.513Z,964.92
2023-01-17T08:48:11.488Z,964.90
2023-01-17T08:49:11.479Z,964.92
2023-01-17T08:50:11.469Z,964.90
2023-01-17T08:51:11.465Z,964.96
2023-01-17T08:52:11.489Z,964.92
2023-01-17T08:53:11.440Z,964.93
2023-01-17T08:54:11.460Z,964.96
2023-01-17T08:55:11.432Z,964.99
2023-01-17T08:56:11.429Z,964.92
2023-01-17T08:57:11.465Z,964.99
2023-01-17T08:58:11.435Z,964.95
2023-01-17T08:59:11.389Z,964.97
2023-01-17T09:00:11.387Z,964.98
2023-01-17T09:01:11.468Z,964.94
2023-01-17T09:02:11.376Z,964.98
2023-01-17T09:03:11.351Z,965.03
2023-01-17T09:04:11.386Z,964.98
2023-01-17T09:05:11.338Z,965.01
2023-01-17T09:06:11.343Z,965.00
2023-01-17T09:07:11.338Z,964.96
2023-01-17T09:08:11.305Z,965.04
2023-01-17T09:09:11.303Z,965.01
2023-01-17T09:10:11.293Z,965.04
2023-01-17T09:11:11.292Z,965.06
2023-01-17T09:12:11.290Z,965.00
2023-01-17T09:13:11.272Z,965.04
2023-01-17T09:14:11.274Z,965.05
2023-01-17T09:15:11.251Z,964.99
2023-01-17T09:16:11.362Z,965.05
2023-01-17T09:17:13.096Z,965.09
2023-01-17T09:18:11.225Z,965.04
2023-01-17T09:19:11.221Z,965.05
2023-01-17T09:20:11.206Z,965.11
2023-01-17T09:21:11.207Z,965.12
2023-01-17T09:24:02.552Z,965.19
2023-01-17T09:25:02.541Z,965.18
2023-01-17T09:26:02.538Z,965.19
2023-01-17T09:27:02.551Z,965.20
2023-01-17T09:28:02.523Z,965.20
2023-01-17T09:29:02.520Z,965.18
2023-01-17T09:30:02.500Z,965.21
2023-01-17T09:31:03.668Z,965.19
2023-01-17T09:32:03.682Z,965.21
2023-01-17T09:33:03.599Z,965.16
2023-01-17T09:34:03.612Z,965.17
2023-01-17T09:35:03.576Z,965.22
2023-01-17T09:36:03.578Z,965.20
2023-01-17T09:37:03.590Z,965.23
2023-01-17T09:38:03.560Z,965.21
2023-01-17T09:39:03.586Z,965.22
2023-01-17T09:40:03.603Z,965.17
2023-01-17T09:41:03.535Z,965.15
2023-01-17T09:42:03.561Z,965.15
2023-01-17T09:43:03.514Z,965.18
2023-01-17T09:44:03.516Z,965.16
2023-01-17T09:45:03.502Z,965.19
2023-01-17T09:46:03.542Z,965.21
2023-01-17T09:47:03.572Z,965.22
2023-01-17T09:48:03.472Z,965.24
2023-01-17T09:49:03.465Z,965.17
2023-01-17T09:50:03.452Z,965.15
2023-01-17T09:51:03.445Z,965.20
2023-01-17T09:52:03.468Z,965.20
2023-01-17T09:53:03.425Z,965.18
2023-01-17T09:54:03.407Z,965.17
2023-01-17T09:55:03.410Z,965.15
2023-01-17T09:56:03.390Z,965.17
2023-01-17T09:57:03.406Z,965.14
2023-01-17T09:58:03.366Z,965.12
2023-01-17T09:59:03.374Z,965.15
2023-01-17T10:00:04.144Z,965.14
2023-01-17T10:01:03.401Z,965.14
2023-01-17T10:02:03.495Z,965.04
2023-01-17T10:03:03.335Z,965.11
2023-01-17T10:04:03.357Z,965.08
2023-01-17T10:05:03.404Z,965.12
2023-01-17T10:06:03.302Z,965.15
2023-01-17T10:07:03.295Z,965.16
2023-01-17T10:08:04.596Z,965.11
2023-01-17T10:09:04.256Z,965.17
2023-01-17T10:10:03.246Z,965.16
2023-01-17T10:11:03.228Z,965.13
2023-01-17T10:12:03.243Z,965.10
2023-01-17T10:13:03.209Z,965.20
2023-01-17T10:14:03.199Z,965.17
2023-01-17T10:15:03.226Z,965.17
2023-01-17T10:16:03.185Z,965.15
2023-01-17T10:17:03.204Z,965.18
2023-01-17T10:18:03.163Z,965.14
2023-01-17T10:19:03.154Z,965.17
2023-01-17T10:20:03.135Z,965.21
2023-01-17T10:21:03.143Z,965.20
2023-01-17T10:22:03.155Z,965.19
2023-01-17T10:23:03.111Z,965.17
2023-01-17T10:24:03.099Z,965.19
2023-01-17T10:25:03.101Z,965.21
2023-01-17T10:26:03.081Z,965.13
2023-01-17T10:27:03.127Z,965.20
2023-01-17T10:28:03.070Z,965.23
2023-01-17T10:29:03.053Z,965.18
2023-01-17T10:30:03.054Z,965.19
2023-01-17T10:31:03.059Z,965.20
2023-01-17T10:32:04.045Z,965.19
2023-01-17T10:33:03.033Z,965.20
2023-01-17T10:34:03.013Z,965.22
2023-01-17T10:35:02.987Z,965.29
2023-01-17T10:36:02.988Z,965.26
2023-01-17T10:37:02.987Z,965.25
2023-01-17T10:38:02.969Z,965.24
2023-01-17T10:39:02.944Z,965.26
2023-01-17T10:40:02.941Z,965.26
2023-01-17T10:41:02.935Z,965.27
2023-01-17T10:42:02.947Z,965.32
2023-01-17T10:43:02.911Z,965.30
2023-01-17T10:44:02.904Z,965.32
2023-01-17T10:45:02.894Z,965.23
2023-01-17T10:46:02.928Z,965.23
2023-01-17T10:47:02.889Z,965.17
2023-01-17T10:48:02.867Z,965.23
2023-01-17T10:49:02.873Z,965.24
2023-01-17T10:50:02.845Z,965.17
2023-01-17T10:51:02.835Z,965.19
2023-01-17T10:52:02.873Z,965.21
2023-01-17T10:53:02.833Z,965.15
2023-01-17T10:54:02.821Z,965.19
2023-01-17T10:55:02.795Z,965.22
2023-01-17T10:56:02.791Z,965.21
2023-01-17T10:57:02.809Z,965.16
2023-01-17T10:58:02.799Z,965.18
2023-01-17T10:59:02.767Z,965.20
2023-01-17T11:00:02.754Z,965.16
2023-01-17T11:01:02.921Z,965.20
2023-01-17T11:02:02.783Z,965.14
2023-01-17T11:03:02.850Z,965.17
2023-01-17T11:04:02.774Z,965.05
2023-01-17T11:05:02.713Z,965.12
2023-01-17T11:06:02.692Z,965.14
2023-01-17T11:07:02.685Z,965.11
2023-01-17T11:08:02.706Z,965.15
2023-01-17T11:09:02.664Z,965.10
2023-01-17T11:10:02.661Z,965.17
2023-01-17T11:11:02.631Z,965.08
2023-01-17T11:12:02.633Z,965.13
2023-01-17T11:13:02.671Z,965.17
2023-01-17T11:14:02.626Z,965.16
2023-01-17T11:15:02.582Z,965.08
2023-01-17T11:16:02.645Z,965.07
2023-01-17T11:17:02.583Z,965.04
2023-01-17T11:18:02.596Z,965.00
2023-01-17T11:19:02.551Z,965.00
2023-01-17T11:20:02.547Z,965.01
2023-01-17T11:21:02.538Z,964.99
2023-01-17T11:22:02.526Z,965.01
2023-01-17T11:23:02.531Z,965.07
2023-01-17T11:24:02.520Z,965.07
2023-01-17T11:25:02.498Z,965.09
2023-01-17T11:26:02.486Z,965.06
2023-01-17T11:27:02.481Z,965.12
2023-01-17T11:28:02.497Z,965.08
2023-01-17T11:29:02.460Z,965.07
2023-01-17T11:30:02.475Z,965.10
2023-01-17T11:31:02.451Z,965.08
2023-01-17T11:32:02.429Z,965.07
2023-01-17T11:33:02.444Z,965.03
2023-01-17T11:34:02.412Z,965.06
2023-01-17T11:35:02.391Z,965.00
2023-01-17T11:36:02.381Z,965.10
2023-01-17T11:37:02.378Z,965.07
2023-01-17T11:38:02.405Z,965.15
2023-01-17T11:39:02.354Z,965.11
2023-01-17T11:40:02.346Z,965.03
2023-01-17T11:41:02.341Z,965.03
2023-01-17T11:42:02.334Z,965.06
2023-01-17T11:43:02.340Z,965.10
2023-01-17T11:44:02.320Z,965.10
2023-01-17T11:45:02.299Z,965.17
2023-01-17T11:46:02.333Z,965.17
2023-01-17T11:47:02.278Z,965.10
2023-01-17T11:48:02.283Z,965.11
2023-01-17T11:49:02.268Z,965.15
2023-01-17T11:50:02.274Z,965.14
2023-01-17T11:51:02.245Z,965.11
2023-01-17T11:52:02.222Z,965.12
2023-01-17T11:53:02.233Z,965.13
2023-01-17T11:54:02.208Z,965.16
2023-01-17T11:55:02.214Z,965.15
2023-01-17T11:56:02.180Z,965.11
2023-01-17T11:57:02.169Z,965.20
2023-01-17T11:58:02.177Z,965.19
2023-01-17T11:59:02.152Z,965.20
2023-01-17T12:00:02.137Z,965.15
2023-01-17T12:01:02.241Z,965.19
2023-01-17T12:02:02.121Z,965.21
2023-01-17T12:03:02.130Z,965.20
2023-01-17T12:04:02.218Z,965.16
2023-01-17T12:05:02.105Z,965.16
2023-01-17T12:06:02.090Z,965.16
2023-01-17T12:07:02.069Z,965.21
2023-01-17T12:08:02.092Z,965.17
2023-01-17T12:09:02.075Z,965.19
2023-01-17T12:10:02.077Z,965.21
2023-01-17T12:11:02.025Z,965.27
2023-01-17T12:12:03.233Z,965.30
2023-01-17T12:13:02.032Z,965.24
2023-01-17T12:14:02.026Z,965.29
2023-01-17T12:15:02.021Z,965.26
2023-01-17T12:16:02.000Z,965.19
2023-01-17T12:17:01.973Z,965.23
2023-01-17T12:18:01.987Z,965.26
2023-01-17T12:19:01.943Z,965.27
2023-01-17T12:20:01.937Z,965.20
2023-01-17T12:21:01.936Z,965.20
2023-01-17T12:22:01.926Z,965.21
2023-01-17T12:23:01.942Z,965.17
2023-01-17T12:24:01.932Z,965.19
2023-01-17T12:25:01.892Z,965.23
2023-01-17T12:26:01.887Z,965.18
2023-01-17T12:27:01.865Z,965.21
2023-01-17T12:28:01.888Z,965.20
2023-01-17T12:29:01.848Z,965.23
2023-01-17T12:30:01.831Z,965.25
2023-01-17T12:31:01.838Z,965.24
2023-01-17T12:32:01.807Z,965.23
2023-01-17T12:33:01.819Z,965.26
2023-01-17T12:34:01.797Z,965.25
2023-01-17T12:35:01.799Z,965.20
2023-01-17T12:36:01.807Z,965.21
2023-01-17T12:37:01.755Z,965.27
2023-01-17T12:38:05.181Z,965.29
2023-01-17T12:39:02.736Z,965.28
2023-01-17T12:40:01.732Z,965.26
2023-01-17T12:41:01.717Z,965.28
2023-01-17T12:42:01.702Z,965.35
2023-01-17T12:43:01.731Z,965.23
2023-01-17T12:44:01.681Z,965.27
2023-01-17T12:45:01.681Z,965.34
2023-01-17T12:46:01.668Z,965.24
2023-01-17T12:47:01.650Z,965.26
2023-01-17T12:48:01.663Z,965.26
2023-01-17T12:49:01.649Z,965.26
2023-01-17T12:50:01.631Z,965.26
2023-01-17T12:51:01.616Z,965.23
2023-01-17T12:52:01.614Z,965.24
2023-01-17T12:53:01.610Z,965.28
2023-01-17T12:54:01.637Z,965.24
2023-01-17T12:55:01.587Z,965.23
2023-01-17T12:56:01.571Z,965.16
2023-01-17T12:57:01.583Z,965.15
2023-01-17T12:58:01.576Z,965.08